createdAt,value
2018-01-30T00:01:11.050Z,2.97
2018-01-30T00:03:39.374Z,3.30
2018-01-30T00:06:06.892Z,2.65
2018-01-30T00:08:35.125Z,3.08
2018-01-30T00:11:02.928Z,3.28
2018-01-30T00:13:30.836Z,1.92
2018-01-30T00:15:58.715Z,2.53
2018-01-30T00:18:26.619Z,2.90
2018-01-30T00:20:55.058Z,2.50
2018-01-30T00:23:22.543Z,1.87
2018-01-30T00:25:50.738Z,2.45
2018-01-30T00:28:18.987Z,2.25
2018-01-30T00:30:47.292Z,2.40
2018-01-30T00:33:15.914Z,2.42
2018-01-30T00:35:43.812Z,2.30
2018-01-30T00:38:11.306Z,2.53
2018-01-30T00:40:40.590Z,4.03
2018-01-30T00:43:08.443Z,2.40
2018-01-30T00:45:36.336Z,2.10
2018-01-30T00:48:04.219Z,2.72
2018-01-30T00:50:32.440Z,2.37
2018-01-30T00:52:59.946Z,2.50
2018-01-30T00:55:27.872Z,2.37
2018-01-30T00:57:55.810Z,2.10
2018-01-30T01:00:23.678Z,3.25
2018-01-30T01:02:51.511Z,2.20
2018-01-30T01:05:19.744Z,3.85
2018-01-30T01:07:47.202Z,2.40
2018-01-30T01:10:15.423Z,2.55
2018-01-30T01:12:43.722Z,2.20
2018-01-30T01:15:11.207Z,3.00
2018-01-30T01:17:39.407Z,2.50
2018-01-30T01:20:07.645Z,3.15
2018-01-30T01:22:35.120Z,3.00
2018-01-30T01:25:03.007Z,3.50
2018-01-30T01:27:31.449Z,5.32
2018-01-30T01:29:59.254Z,8.68
2018-01-30T01:32:27.219Z,7.35
2018-01-30T01:34:54.857Z,6.18
2018-01-30T01:37:22.367Z,6.20
2018-01-30T01:39:51.033Z,6.78
2018-01-30T01:42:18.507Z,6.07
2018-01-30T01:44:45.990Z,7.85
2018-01-30T01:47:13.912Z,12.63
2018-01-30T01:49:42.202Z,13.13
2018-01-30T01:52:10.455Z,6.25
2018-01-30T01:54:38.323Z,8.70
2018-01-30T01:57:06.188Z,4.35
2018-01-30T01:59:33.796Z,3.92
2018-01-30T02:02:02.763Z,2.75
2018-01-30T02:04:30.614Z,3.55
2018-01-30T02:06:58.855Z,2.72
2018-01-30T02:09:27.390Z,3.15
2018-01-30T02:11:55.693Z,2.95
2018-01-30T02:14:23.310Z,3.25
2018-01-30T02:16:52.042Z,4.47
2018-01-30T02:19:19.746Z,2.75
2018-01-30T02:21:47.727Z,2.00
2018-01-30T02:24:15.625Z,2.62
2018-01-30T02:26:43.867Z,3.00
2018-01-30T02:29:11.878Z,4.43
2018-01-30T02:31:40.561Z,4.12
2018-01-30T02:34:08.023Z,2.40
2018-01-30T02:36:35.494Z,2.92
2018-01-30T02:39:03.722Z,2.55
2018-01-30T02:41:31.186Z,2.50
2018-01-30T02:43:58.790Z,2.62
2018-01-30T02:46:27.004Z,3.47
2018-01-30T02:48:54.939Z,3.30
2018-01-30T02:51:22.867Z,2.65
2018-01-30T02:53:51.425Z,2.85
2018-01-30T02:56:19.657Z,3.00
2018-01-30T02:58:47.119Z,3.20
2018-01-30T03:01:15.344Z,2.83
2018-01-30T03:03:42.889Z,2.90
2018-01-30T03:06:10.744Z,3.65
2018-01-30T03:08:39.326Z,2.80
2018-01-30T03:11:06.801Z,3.42
2018-01-30T03:13:34.650Z,2.83
2018-01-30T03:16:02.843Z,3.20
2018-01-30T03:18:31.071Z,3.22
2018-01-30T03:20:58.938Z,4.20
2018-01-30T03:23:26.794Z,3.45
2018-01-30T03:25:54.289Z,3.20
2018-01-30T03:28:21.799Z,2.95
2018-01-30T03:30:49.663Z,3.00
2018-01-30T03:33:17.511Z,3.30
2018-01-30T03:35:44.970Z,3.67
2018-01-30T03:38:12.798Z,3.70
2018-01-30T03:40:40.682Z,3.97
2018-01-30T03:43:08.918Z,3.47
2018-01-30T03:45:36.406Z,3.05
2018-01-30T03:48:04.271Z,5.03
2018-01-30T03:50:32.520Z,3.53
2018-01-30T03:53:01.843Z,3.55
2018-01-30T03:55:29.706Z,3.75
2018-01-30T03:57:57.223Z,3.53
2018-01-30T04:00:24.727Z,3.20
2018-01-30T04:02:53.972Z,3.05
2018-01-30T04:05:22.245Z,3.50
2018-01-30T04:07:50.473Z,3.70
2018-01-30T04:10:18.349Z,3.30
2018-01-30T04:12:46.562Z,3.25
2018-01-30T04:15:15.195Z,3.70
2018-01-30T04:17:42.728Z,3.40
2018-01-30T04:20:10.938Z,3.72
2018-01-30T04:22:39.227Z,4.30
2018-01-30T04:25:07.476Z,4.82
2018-01-30T04:27:34.938Z,3.15
2018-01-30T04:30:02.861Z,2.83
2018-01-30T04:32:31.094Z,3.60
2018-01-30T04:34:59.323Z,3.35
2018-01-30T04:37:27.123Z,4.35
2018-01-30T04:39:55.351Z,3.55
2018-01-30T04:42:23.260Z,3.00
2018-01-30T04:44:51.126Z,4.82
2018-01-30T04:47:18.995Z,3.40
2018-01-30T04:49:46.497Z,4.50
2018-01-30T04:52:13.988Z,5.47
2018-01-30T04:54:41.850Z,4.28
2018-01-30T04:57:09.342Z,3.83
2018-01-30T04:59:37.930Z,3.75
2018-01-30T05:02:05.831Z,3.50
2018-01-30T05:04:34.430Z,3.08
2018-01-30T05:07:02.707Z,3.78
2018-01-30T05:09:30.657Z,3.20
2018-01-30T05:11:58.247Z,3.28
2018-01-30T05:14:25.726Z,3.20
2018-01-30T05:16:53.579Z,3.42
2018-01-30T05:19:21.458Z,3.70
2018-01-30T05:21:48.939Z,3.15
2018-01-30T05:24:16.834Z,3.50
2018-01-30T05:26:44.303Z,4.37
2018-01-30T05:29:11.807Z,4.47
2018-01-30T05:31:40.027Z,4.75
2018-01-30T05:34:07.491Z,8.63
2018-01-30T05:36:35.294Z,8.25
2018-01-30T05:39:03.165Z,7.72
2018-01-30T05:41:31.098Z,5.85
2018-01-30T05:43:59.800Z,4.78
2018-01-30T05:46:27.271Z,4.28
2018-01-30T05:48:55.174Z,4.60
2018-01-30T05:51:23.551Z,4.60
2018-01-30T05:53:51.027Z,4.80
2018-01-30T05:56:19.298Z,3.58
2018-01-30T05:58:47.573Z,3.60
2018-01-30T06:01:15.040Z,3.28
2018-01-30T06:03:43.066Z,3.55
2018-01-30T06:06:11.770Z,3.60
2018-01-30T06:08:39.990Z,3.35
2018-01-30T06:11:07.929Z,4.68
2018-01-30T06:13:36.104Z,3.20
2018-01-30T06:16:04.487Z,3.42
2018-01-30T06:18:31.981Z,3.10
2018-01-30T06:20:59.909Z,3.12
2018-01-30T06:23:27.420Z,3.00
2018-01-30T06:25:55.311Z,3.62
2018-01-30T06:28:22.848Z,3.45
2018-01-30T06:30:50.727Z,4.15
2018-01-30T06:33:19.061Z,4.25
2018-01-30T06:35:46.945Z,3.60
2018-01-30T06:38:15.917Z,2.85
2018-01-30T06:40:43.450Z,3.55
2018-01-30T06:43:11.214Z,3.28
2018-01-30T06:45:38.694Z,4.30
2018-01-30T06:48:06.551Z,3.35
2018-01-30T06:50:34.354Z,3.65
2018-01-30T06:53:01.862Z,3.45
2018-01-30T06:55:30.471Z,3.55
2018-01-30T06:57:58.232Z,4.30
2018-01-30T07:00:26.091Z,5.03
2018-01-30T07:02:53.951Z,4.70
2018-01-30T07:05:21.832Z,3.90
2018-01-30T07:07:49.314Z,3.97
2018-01-30T07:10:17.743Z,3.40
2018-01-30T07:12:45.911Z,4.50
2018-01-30T07:15:13.889Z,4.40
2018-01-30T07:17:42.517Z,4.95
2018-01-30T07:20:10.029Z,4.15
2018-01-30T07:22:38.154Z,4.80
2018-01-30T07:25:06.480Z,5.30
2018-01-30T07:27:34.687Z,5.15
2018-01-30T07:30:02.199Z,6.43
2018-01-30T07:32:29.769Z,5.12
2018-01-30T07:34:57.639Z,5.30
2018-01-30T07:37:25.520Z,6.20
2018-01-30T07:39:53.384Z,4.93
2018-01-30T07:42:20.923Z,5.30
2018-01-30T07:44:49.164Z,4.93
2018-01-30T07:47:17.023Z,4.57
2018-01-30T07:49:45.283Z,5.05
2018-01-30T07:52:13.538Z,5.50
2018-01-30T07:54:41.410Z,6.55
2018-01-30T07:57:08.884Z,6.68
2018-01-30T07:59:37.123Z,4.93
2018-01-30T08:02:05.364Z,4.47
2018-01-30T08:04:34.191Z,4.95
2018-01-30T08:07:01.690Z,5.22
2018-01-30T08:09:29.955Z,6.15
2018-01-30T08:11:58.197Z,5.32
2018-01-30T08:14:26.847Z,5.90
2018-01-30T08:16:55.103Z,5.05
2018-01-30T08:19:24.554Z,5.07
2018-01-30T08:21:52.857Z,4.70
2018-01-30T08:24:21.693Z,5.55
2018-01-30T08:26:50.326Z,4.62
2018-01-30T08:29:17.800Z,4.35
2018-01-30T08:31:45.318Z,6.03
2018-01-30T08:34:13.563Z,5.05
2018-01-30T08:36:41.619Z,5.40
2018-01-30T08:39:09.551Z,4.70
2018-01-30T08:41:37.427Z,5.18
2018-01-30T08:44:04.907Z,5.28
2018-01-30T08:46:32.793Z,4.00
2018-01-30T08:49:01.043Z,5.12
2018-01-30T08:51:28.514Z,5.53
2018-01-30T08:53:57.223Z,4.32
2018-01-30T08:56:24.707Z,4.22
2018-01-30T08:58:52.566Z,3.97
2018-01-30T09:01:20.097Z,3.80
2018-01-30T09:03:48.000Z,3.00
2018-01-30T09:06:15.464Z,3.78
2018-01-30T09:08:43.488Z,4.28
2018-01-30T09:11:12.154Z,4.40
2018-01-30T09:13:40.387Z,3.95
2018-01-30T09:16:08.255Z,5.65
2018-01-30T09:18:36.059Z,3.95
2018-01-30T09:21:03.929Z,4.70
2018-01-30T09:23:31.395Z,4.43
2018-01-30T09:25:59.727Z,5.32
2018-01-30T09:28:27.594Z,4.25
2018-01-30T09:30:55.837Z,4.68
2018-01-30T09:33:23.727Z,4.37
2018-01-30T09:35:51.277Z,4.40
2018-01-30T09:38:19.191Z,4.30
2018-01-30T09:40:47.115Z,4.87
2018-01-30T09:43:14.627Z,4.60
2018-01-30T09:45:42.671Z,4.70
2018-01-30T09:48:10.174Z,4.75
2018-01-30T09:50:37.757Z,4.62
2018-01-30T09:53:05.729Z,4.93
2018-01-30T09:55:33.550Z,5.35
2018-01-30T09:58:01.792Z,4.68
2018-01-30T10:00:29.288Z,5.00
2018-01-30T10:02:57.858Z,5.60
2018-01-30T10:05:26.135Z,4.45
2018-01-30T10:07:54.029Z,5.57
2018-01-30T10:10:22.379Z,3.97
2018-01-30T10:12:49.843Z,4.60
2018-01-30T10:15:18.798Z,4.00
2018-01-30T10:17:46.691Z,3.40
2018-01-30T10:20:14.303Z,4.28
2018-01-30T10:22:42.931Z,4.00
2018-01-30T10:25:10.456Z,3.70
2018-01-30T10:27:37.969Z,3.08
2018-01-30T10:30:06.283Z,3.90
2018-01-30T10:32:35.070Z,4.57
2018-01-30T10:35:02.572Z,3.05
2018-01-30T10:37:30.832Z,3.40
2018-01-30T10:39:59.551Z,3.80
2018-01-30T10:42:27.802Z,3.85
2018-01-30T10:44:55.663Z,3.60
2018-01-30T10:47:23.237Z,5.07
2018-01-30T10:49:51.140Z,3.45
2018-01-30T10:52:18.631Z,3.25
2018-01-30T10:54:46.500Z,3.00
2018-01-30T10:57:14.381Z,3.70
2018-01-30T10:59:41.851Z,3.55
2018-01-30T11:02:09.947Z,3.28
2018-01-30T11:04:38.258Z,4.18
2018-01-30T11:07:06.131Z,6.18
2018-01-30T11:09:34.413Z,3.95
2018-01-30T11:12:02.299Z,3.85
2018-01-30T11:14:29.786Z,3.97
2018-01-30T11:16:57.590Z,3.53
2018-01-30T11:19:25.491Z,4.10
2018-01-30T11:21:54.090Z,4.05
2018-01-30T11:24:21.908Z,3.40
2018-01-30T11:26:49.781Z,3.92
2018-01-30T11:29:17.294Z,3.95
2018-01-30T11:31:45.566Z,4.28
2018-01-30T11:34:13.432Z,3.50
2018-01-30T11:36:43.530Z,4.35
2018-01-30T11:39:11.030Z,3.08
2018-01-30T11:41:38.946Z,3.25
2018-01-30T11:44:06.863Z,4.25
2018-01-30T11:46:34.443Z,2.90
2018-01-30T11:49:02.920Z,3.20
2018-01-30T11:51:31.215Z,3.70
2018-01-30T11:53:59.174Z,3.12
2018-01-30T11:56:26.758Z,4.07
2018-01-30T11:58:54.622Z,4.82
2018-01-30T12:01:22.177Z,4.68
2018-01-30T12:03:49.683Z,3.92
2018-01-30T12:06:17.575Z,3.70
2018-01-30T12:08:45.512Z,4.40
2018-01-30T12:11:13.815Z,2.80
2018-01-30T12:13:41.303Z,3.50
2018-01-30T12:16:08.800Z,3.70
2018-01-30T12:18:37.038Z,3.62
2018-01-30T12:21:04.527Z,3.90
2018-01-30T12:23:32.427Z,2.83
2018-01-30T12:26:00.675Z,3.37
2018-01-30T12:28:28.590Z,2.90
2018-01-30T12:30:56.125Z,2.65
2018-01-30T12:33:24.011Z,3.20
2018-01-30T12:35:51.530Z,4.22
2018-01-30T12:38:19.776Z,2.95
2018-01-30T12:40:47.768Z,2.90
2018-01-30T12:43:16.009Z,4.10
2018-01-30T12:45:43.791Z,5.10
2018-01-30T12:48:11.698Z,4.28
2018-01-30T12:50:39.677Z,4.85
2018-01-30T12:53:07.611Z,3.50
2018-01-30T12:55:35.855Z,3.58
2018-01-30T12:58:03.314Z,3.00
2018-01-30T13:00:31.210Z,2.55
2018-01-30T13:02:59.090Z,2.67
2018-01-30T13:05:26.588Z,2.62
2018-01-30T13:07:54.126Z,3.10
2018-01-30T13:10:21.922Z,2.70
2018-01-30T13:12:50.179Z,3.10
2018-01-30T13:15:18.283Z,3.22
2018-01-30T13:17:46.348Z,2.37
2018-01-30T13:20:14.211Z,3.00
2018-01-30T13:22:42.403Z,3.20
2018-01-30T13:25:10.647Z,3.05
2018-01-30T13:27:38.513Z,2.75
2018-01-30T13:30:06.359Z,3.12
2018-01-30T13:32:34.211Z,2.83
2018-01-30T13:35:01.786Z,5.45
2018-01-30T13:37:29.667Z,5.18
2018-01-30T13:39:58.452Z,5.45
2018-01-30T13:42:25.967Z,4.25
2018-01-30T13:44:54.220Z,5.22
2018-01-30T13:47:22.096Z,5.03
2018-01-30T13:49:50.004Z,2.75
2018-01-30T13:52:17.570Z,3.15
2018-01-30T13:54:45.445Z,3.20
2018-01-30T13:57:13.669Z,3.33
2018-01-30T13:59:41.907Z,3.05
2018-01-30T14:02:09.371Z,3.00
2018-01-30T14:04:36.861Z,2.62
2018-01-30T14:07:04.788Z,3.40
2018-01-30T14:09:32.251Z,3.58
2018-01-30T14:12:01.196Z,2.80
2018-01-30T14:14:29.438Z,3.03
2018-01-30T14:16:57.671Z,2.60
2018-01-30T14:19:25.556Z,2.35
2018-01-30T14:21:53.039Z,3.45
2018-01-30T14:24:20.515Z,2.85
2018-01-30T14:26:48.851Z,3.50
2018-01-30T14:29:16.740Z,3.00
2018-01-30T14:31:44.971Z,5.30
2018-01-30T14:34:12.450Z,3.42
2018-01-30T14:36:39.970Z,3.37
2018-01-30T14:39:07.844Z,3.05
2018-01-30T14:41:36.755Z,3.08
2018-01-30T14:44:04.267Z,3.80
2018-01-30T14:46:31.765Z,4.22
2018-01-30T14:48:59.283Z,4.12
2018-01-30T14:51:27.584Z,3.10
2018-01-30T14:53:56.649Z,2.60
2018-01-30T14:56:24.268Z,2.40
2018-01-30T14:58:52.519Z,2.40
2018-01-30T15:01:20.760Z,3.40
2018-01-30T15:03:48.649Z,2.65
2018-01-30T15:06:16.979Z,2.65
2018-01-30T15:08:44.563Z,3.12
2018-01-30T15:11:12.790Z,2.83
2018-01-30T15:13:40.686Z,2.20
2018-01-30T15:16:08.637Z,3.40
2018-01-30T15:18:36.542Z,2.50
2018-01-30T15:21:04.790Z,2.83
2018-01-30T15:23:32.667Z,2.50
2018-01-30T15:26:00.915Z,2.70
2018-01-30T15:28:28.819Z,3.05
2018-01-30T15:30:56.696Z,3.90
2018-01-30T15:33:24.583Z,2.30
2018-01-30T15:35:52.083Z,2.53
2018-01-30T15:38:19.999Z,3.67
2018-01-30T15:40:47.475Z,3.10
2018-01-30T15:43:15.008Z,3.37
2018-01-30T15:45:43.283Z,3.00
2018-01-30T15:48:11.143Z,3.10
2018-01-30T16:03:33.554Z,3.90
2018-01-30T16:06:01.056Z,3.20
2018-01-30T16:08:28.713Z,3.40
2018-01-30T16:10:56.667Z,2.85
2018-01-30T16:13:24.943Z,2.70
2018-01-30T16:15:52.400Z,3.53
2018-01-30T16:18:20.572Z,3.17
2018-01-30T16:20:48.085Z,4.62
2018-01-30T16:23:16.017Z,5.25
2018-01-30T16:25:43.956Z,3.70
2018-01-30T16:28:11.922Z,4.10
2018-01-30T16:30:40.191Z,4.82
2018-01-30T16:33:08.432Z,5.05
2018-01-30T16:35:35.942Z,6.60
2018-01-30T16:38:03.517Z,6.60
2018-01-30T16:40:31.003Z,4.90
2018-01-30T16:42:59.279Z,6.28
2018-01-30T16:45:27.540Z,6.40
2018-01-30T16:47:55.909Z,6.93
2018-01-30T16:50:24.225Z,7.40
2018-01-30T16:52:52.107Z,8.43
2018-01-30T16:55:20.423Z,10.38
2018-01-30T16:57:48.309Z,10.52
2018-01-30T17:00:15.823Z,10.30
2018-01-30T17:02:43.324Z,9.90
2018-01-30T17:05:11.938Z,10.70
2018-01-30T17:07:39.411Z,9.95
2018-01-30T17:10:07.302Z,10.98
2018-01-30T17:12:34.778Z,10.27
2018-01-30T17:15:03.389Z,9.75
2018-01-30T17:17:31.638Z,7.62
2018-01-30T17:19:59.121Z,7.45
2018-01-30T17:22:26.609Z,9.07
2018-01-30T17:24:54.136Z,9.50
2018-01-30T17:27:22.021Z,8.05
2018-01-30T17:29:49.939Z,7.47
2018-01-30T17:32:18.589Z,6.25
2018-01-30T17:34:46.515Z,6.60
2018-01-30T17:37:14.418Z,6.90
2018-01-30T17:39:42.738Z,7.15
2018-01-30T17:42:11.340Z,5.80
2018-01-30T17:44:38.802Z,6.80
2018-01-30T17:47:07.097Z,6.97
2018-01-30T17:49:35.123Z,5.95
2018-01-30T17:52:03.041Z,5.68
2018-01-30T17:54:30.532Z,5.60
2018-01-30T17:56:58.806Z,6.40
2018-01-30T17:59:26.843Z,6.90
2018-01-30T18:01:54.718Z,7.75
2018-01-30T18:04:23.043Z,7.57
2018-01-30T18:06:50.533Z,7.53
2018-01-30T18:09:18.931Z,8.95
2018-01-30T18:11:47.252Z,8.30
2018-01-30T18:14:15.129Z,7.65
2018-01-30T18:16:43.409Z,8.02
2018-01-30T18:19:11.642Z,7.72
2018-01-30T18:21:39.877Z,9.35
2018-01-30T18:24:07.745Z,9.30
2018-01-30T18:26:36.728Z,11.70
2018-01-30T18:29:04.222Z,11.50
2018-01-30T18:31:32.493Z,12.10
2018-01-30T18:34:00.748Z,12.50
2018-01-30T18:36:28.603Z,10.05
2018-01-30T18:38:56.187Z,8.82
2018-01-30T18:41:23.655Z,7.87
2018-01-30T18:43:51.628Z,7.40
2018-01-30T18:46:19.607Z,8.25
2018-01-30T18:48:48.020Z,11.43
2018-01-30T18:51:15.513Z,12.70
2018-01-30T18:53:44.151Z,9.25
2018-01-30T18:56:12.039Z,9.60
2018-01-30T18:58:40.275Z,7.32
2018-01-30T19:01:08.775Z,7.28
2018-01-30T19:03:36.296Z,6.50
2018-01-30T19:06:04.532Z,6.85
2018-01-30T19:08:32.777Z,6.47
2018-01-30T19:11:00.676Z,7.82
2018-01-30T19:13:28.530Z,6.45
2018-01-30T19:15:56.399Z,7.05
2018-01-30T19:18:24.631Z,7.20
2018-01-30T19:20:52.898Z,6.90
2018-01-30T19:23:21.139Z,7.45
2018-01-30T19:25:48.601Z,7.40
2018-01-30T19:28:17.629Z,7.35
2018-01-30T19:30:46.296Z,6.65
2018-01-30T19:33:13.774Z,6.50
2018-01-30T19:35:41.709Z,8.05
2018-01-30T19:38:09.633Z,7.35
2018-01-30T19:40:37.498Z,7.12
2018-01-30T19:43:06.107Z,6.30
2018-01-30T19:45:34.740Z,7.25
2018-01-30T19:48:02.711Z,6.60
2018-01-30T19:50:31.016Z,6.57
2018-01-30T19:52:58.504Z,6.90
2018-01-30T19:55:26.436Z,7.47
2018-01-30T19:57:54.699Z,8.68
2018-01-30T20:00:22.277Z,10.30
2018-01-30T20:02:50.159Z,11.18
2018-01-30T20:05:18.036Z,10.70
2018-01-30T20:07:45.947Z,10.68
2018-01-30T20:10:13.819Z,12.02
2018-01-30T20:12:41.683Z,11.50
2018-01-30T20:15:09.959Z,11.80
2018-01-30T20:17:37.835Z,12.80
2018-01-30T20:20:05.697Z,13.25
2018-01-30T20:22:33.689Z,11.60
2018-01-30T20:25:01.568Z,13.05
2018-01-30T20:27:29.081Z,13.75
2018-01-30T20:29:57.904Z,14.27
2018-01-30T20:32:26.566Z,12.40
2018-01-30T20:34:54.435Z,12.30
2018-01-30T20:37:23.201Z,10.85
2018-01-30T20:39:51.443Z,12.70
2018-01-30T20:42:18.904Z,13.43
2018-01-30T20:44:46.378Z,12.82
2018-01-30T20:47:13.856Z,12.90
2018-01-30T20:49:42.152Z,13.15
2018-01-30T20:52:10.061Z,13.55
2018-01-30T20:54:38.323Z,11.00
2018-01-30T20:57:06.838Z,12.95
2018-01-30T20:59:34.829Z,14.13
2018-01-30T21:02:02.738Z,13.98
2018-01-30T21:04:30.971Z,12.95
2018-01-30T21:06:58.892Z,13.90
2018-01-30T21:09:26.830Z,13.73
2018-01-30T21:11:54.496Z,15.15
2018-01-30T21:14:22.632Z,13.40
2018-01-30T21:16:50.944Z,13.82
2018-01-30T21:19:18.505Z,14.65
2018-01-30T21:21:47.586Z,14.50
2018-01-30T21:24:15.470Z,14.15
2018-01-30T21:26:43.347Z,13.98
2018-01-30T21:29:10.857Z,15.13
2018-01-30T21:31:38.789Z,16.33
2018-01-30T21:34:06.703Z,16.30
2018-01-30T21:36:34.609Z,15.68
2018-01-30T21:39:02.477Z,13.27
2018-01-30T21:41:30.347Z,16.35
2018-01-30T21:43:58.219Z,14.15
2018-01-30T21:46:26.451Z,14.23
2018-01-30T21:48:54.141Z,16.15
2018-01-30T21:51:22.059Z,16.77
2018-01-30T21:53:49.946Z,16.33
2018-01-30T21:56:18.207Z,16.10
2018-01-30T21:58:46.479Z,17.45
2018-01-30T22:01:14.728Z,16.30
2018-01-30T22:03:42.665Z,16.70
2018-01-30T22:06:10.587Z,17.75
2018-01-30T22:08:38.831Z,18.40
2018-01-30T22:11:06.845Z,17.67
2018-01-30T22:13:35.506Z,18.12
2018-01-30T22:16:03.080Z,18.30
2018-01-30T22:18:30.564Z,16.77
2018-01-30T22:20:58.071Z,18.25
2018-01-30T22:23:30.483Z,18.00
2018-01-30T22:25:58.328Z,19.70
2018-01-30T22:28:26.232Z,19.17
2018-01-30T22:30:54.216Z,18.75
2018-01-30T22:33:22.114Z,18.92
2018-01-30T22:35:50.379Z,17.33
2018-01-30T22:38:18.618Z,19.30
2018-01-30T22:40:46.554Z,19.70
2018-01-30T22:43:14.814Z,21.12
2018-01-30T22:45:42.712Z,20.02
